sensor_id;sensor_type;location;lat;lon;timestamp;P1;durP1;ratioP1;P2;durP2;ratioP2
12990;SDS011;6560;57.692;11.958;2024-01-11T00:00:32;38.03;;;7.73;;
12990;SDS011;6560;57.692;11.958;2024-01-11T00:02:58;37.47;;;7.60;;
12990;SDS011;6560;57.692;11.958;2024-01-11T00:05:23;77.67;;;9.90;;
12990;SDS011;6560;57.692;11.958;2024-01-11T00:07:49;59.43;;;8.80;;
12990;SDS011;6560;57.692;11.958;2024-01-11T00:10:15;33.10;;;6.37;;
12990;SDS011;6560;57.692;11.958;2024-01-11T00:12:41;29.83;;;7.30;;
12990;SDS011;6560;57.692;11.958;2024-01-11T00:15:06;27.57;;;5.30;;
12990;SDS011;6560;57.692;11.958;2024-01-11T00:17:32;28.10;;;5.73;;
12990;SDS011;6560;57.692;11.958;2024-01-11T00:19:57;28.00;;;6.03;;
12990;SDS011;6560;57.692;11.958;2024-01-11T00:22:23;33.07;;;6.70;;
12990;SDS011;6560;57.692;11.958;2024-01-11T00:24:48;43.10;;;7.67;;
12990;SDS011;6560;57.692;11.958;2024-01-11T00:27:14;44.17;;;7.53;;
12990;SDS011;6560;57.692;11.958;2024-01-11T00:29:39;35.13;;;6.87;;
12990;SDS011;6560;57.692;11.958;2024-01-11T00:32:04;41.17;;;7.93;;
12990;SDS011;6560;57.692;11.958;2024-01-11T00:34:30;26.87;;;6.40;;
12990;SDS011;6560;57.692;11.958;2024-01-11T00:36:55;39.30;;;6.67;;
12990;SDS011;6560;57.692;11.958;2024-01-11T00:39:21;24.53;;;5.53;;
12990;SDS011;6560;57.692;11.958;2024-01-11T00:41:46;20.00;;;5.77;;
12990;SDS011;6560;57.692;11.958;2024-01-11T00:44:12;17.10;;;5.17;;
12990;SDS011;6560;57.692;11.958;2024-01-11T00:46:37;32.30;;;6.70;;
12990;SDS011;6560;57.692;11.958;2024-01-11T00:49:09;16.77;;;5.67;;
12990;SDS011;6560;57.692;11.958;2024-01-11T00:51:35;22.40;;;6.50;;
12990;SDS011;6560;57.692;11.958;2024-01-11T00:54:00;27.23;;;7.67;;
12990;SDS011;6560;57.692;11.958;2024-01-11T00:56:26;26.37;;;7.57;;
12990;SDS011;6560;57.692;11.958;2024-01-11T00:58:52;49.77;;;8.73;;
12990;SDS011;6560;57.692;11.958;2024-01-11T01:01:17;13.70;;;5.37;;
12990;SDS011;6560;57.692;11.958;2024-01-11T01:03:43;11.20;;;5.30;;
12990;SDS011;6560;57.692;11.958;2024-01-11T01:06:09;13.83;;;5.90;;
12990;SDS011;6560;57.692;11.958;2024-01-11T01:08:34;23.13;;;7.33;;
12990;SDS011;6560;57.692;11.958;2024-01-11T01:10:59;19.37;;;5.73;;
12990;SDS011;6560;57.692;11.958;2024-01-11T01:13:25;43.10;;;7.17;;
12990;SDS011;6560;57.692;11.958;2024-01-11T01:15:51;64.90;;;9.53;;
12990;SDS011;6560;57.692;11.958;2024-01-11T01:18:16;30.07;;;6.90;;
12990;SDS011;6560;57.692;11.958;2024-01-11T01:20:42;38.23;;;7.70;;
12990;SDS011;6560;57.692;11.958;2024-01-11T01:23:07;41.60;;;8.13;;
12990;SDS011;6560;57.692;11.958;2024-01-11T01:25:33;14.63;;;5.33;;
12990;SDS011;6560;57.692;11.958;2024-01-11T01:27:58;13.43;;;4.90;;
12990;SDS011;6560;57.692;11.958;2024-01-11T01:30:25;12.07;;;4.20;;
12990;SDS011;6560;57.692;11.958;2024-01-11T01:32:51;10.97;;;4.07;;
12990;SDS011;6560;57.692;11.958;2024-01-11T01:35:17;9.87;;;4.67;;
12990;SDS011;6560;57.692;11.958;2024-01-11T01:37:42;13.53;;;4.33;;
12990;SDS011;6560;57.692;11.958;2024-01-11T01:40:08;11.50;;;4.23;;
12990;SDS011;6560;57.692;11.958;2024-01-11T01:42:34;11.53;;;4.57;;
12990;SDS011;6560;57.692;11.958;2024-01-11T01:44:59;27.63;;;7.53;;
12990;SDS011;6560;57.692;11.958;2024-01-11T01:47:25;22.40;;;4.93;;
12990;SDS011;6560;57.692;11.958;2024-01-11T01:49:52;19.47;;;6.03;;
12990;SDS011;6560;57.692;11.958;2024-01-11T01:52:20;42.40;;;6.60;;
12990;SDS011;6560;57.692;11.958;2024-01-11T01:54:47;35.10;;;7.90;;
12990;SDS011;6560;57.692;11.958;2024-01-11T01:57:14;16.00;;;6.60;;
12990;SDS011;6560;57.692;11.958;2024-01-11T01:59:42;15.57;;;5.57;;
12990;SDS011;6560;57.692;11.958;2024-01-11T02:02:08;17.13;;;6.57;;
12990;SDS011;6560;57.692;11.958;2024-01-11T02:04:35;18.90;;;5.90;;
12990;SDS011;6560;57.692;11.958;2024-01-11T02:07:01;14.50;;;4.67;;
12990;SDS011;6560;57.692;11.958;2024-01-11T02:09:27;15.93;;;6.07;;
12990;SDS011;6560;57.692;11.958;2024-01-11T02:11:53;16.30;;;5.90;;
12990;SDS011;6560;57.692;11.958;2024-01-11T02:14:19;8.23;;;4.00;;
12990;SDS011;6560;57.692;11.958;2024-01-11T02:16:45;9.70;;;4.63;;
12990;SDS011;6560;57.692;11.958;2024-01-11T02:19:14;9.53;;;4.73;;
12990;SDS011;6560;57.692;11.958;2024-01-11T02:21:43;7.43;;;4.10;;
12990;SDS011;6560;57.692;11.958;2024-01-11T02:24:11;6.87;;;4.30;;
12990;SDS011;6560;57.692;11.958;2024-01-11T02:26:44;8.77;;;4.57;;
12990;SDS011;6560;57.692;11.958;2024-01-11T02:29:25;7.90;;;3.40;;
12990;SDS011;6560;57.692;11.958;2024-01-11T02:31:50;5.30;;;3.67;;
12990;SDS011;6560;57.692;11.958;2024-01-11T02:34:16;7.93;;;4.60;;
12990;SDS011;6560;57.692;11.958;2024-01-11T02:36:42;6.07;;;3.30;;
12990;SDS011;6560;57.692;11.958;2024-01-11T02:39:08;6.47;;;3.30;;
12990;SDS011;6560;57.692;11.958;2024-01-11T02:41:33;8.77;;;4.20;;
12990;SDS011;6560;57.692;11.958;2024-01-11T02:44:00;9.23;;;4.13;;
12990;SDS011;6560;57.692;11.958;2024-01-11T02:46:26;13.17;;;3.77;;
12990;SDS011;6560;57.692;11.958;2024-01-11T02:48:51;8.97;;;4.47;;
12990;SDS011;6560;57.692;11.958;2024-01-11T02:51:17;8.77;;;4.53;;
12990;SDS011;6560;57.692;11.958;2024-01-11T02:53:43;9.70;;;3.60;;
12990;SDS011;6560;57.692;11.958;2024-01-11T02:56:08;11.03;;;4.40;;
12990;SDS011;6560;57.692;11.958;2024-01-11T02:58:33;8.17;;;4.60;;
12990;SDS011;6560;57.692;11.958;2024-01-11T03:00:59;9.67;;;3.83;;
12990;SDS011;6560;57.692;11.958;2024-01-11T03:03:24;6.87;;;3.93;;
12990;SDS011;6560;57.692;11.958;2024-01-11T03:05:50;8.43;;;4.60;;
12990;SDS011;6560;57.692;11.958;2024-01-11T03:08:15;9.50;;;5.07;;
12990;SDS011;6560;57.692;11.958;2024-01-11T03:10:41;6.63;;;4.50;;
12990;SDS011;6560;57.692;11.958;2024-01-11T03:13:07;6.60;;;4.53;;
12990;SDS011;6560;57.692;11.958;2024-01-11T03:15:32;9.00;;;4.67;;
12990;SDS011;6560;57.692;11.958;2024-01-11T03:17:58;6.83;;;5.17;;
12990;SDS011;6560;57.692;11.958;2024-01-11T03:20:24;7.93;;;4.67;;
12990;SDS011;6560;57.692;11.958;2024-01-11T03:22:52;7.20;;;4.80;;
12990;SDS011;6560;57.692;11.958;2024-01-11T03:25:18;9.93;;;5.10;;
12990;SDS011;6560;57.692;11.958;2024-01-11T03:27:43;9.87;;;6.10;;
12990;SDS011;6560;57.692;11.958;2024-01-11T03:30:09;9.77;;;5.33;;
12990;SDS011;6560;57.692;11.958;2024-01-11T03:32:35;8.37;;;5.40;;
12990;SDS011;6560;57.692;11.958;2024-01-11T03:35:00;9.60;;;5.83;;
12990;SDS011;6560;57.692;11.958;2024-01-11T03:37:26;9.30;;;5.90;;
12990;SDS011;6560;57.692;11.958;2024-01-11T03:39:51;9.50;;;6.07;;
12990;SDS011;6560;57.692;11.958;2024-01-11T03:42:17;13.40;;;6.17;;
12990;SDS011;6560;57.692;11.958;2024-01-11T03:44:42;11.47;;;6.83;;
12990;SDS011;6560;57.692;11.958;2024-01-11T03:47:08;12.33;;;6.53;;
12990;SDS011;6560;57.692;11.958;2024-01-11T03:49:33;11.93;;;6.83;;
12990;SDS011;6560;57.692;11.958;2024-01-11T03:51:59;11.57;;;7.20;;
12990;SDS011;6560;57.692;11.958;2024-01-11T03:54:24;13.27;;;7.73;;
12990;SDS011;6560;57.692;11.958;2024-01-11T03:56:50;11.03;;;7.13;;
12990;SDS011;6560;57.692;11.958;2024-01-11T03:59:15;14.13;;;8.03;;
12990;SDS011;6560;57.692;11.958;2024-01-11T04:01:41;10.53;;;7.70;;
12990;SDS011;6560;57.692;11.958;2024-01-11T04:04:07;11.13;;;7.27;;
12990;SDS011;6560;57.692;11.958;2024-01-11T04:06:32;10.30;;;6.80;;
12990;SDS011;6560;57.692;11.958;2024-01-11T04:08:58;14.57;;;7.43;;
12990;SDS011;6560;57.692;11.958;2024-01-11T04:11:27;13.13;;;7.93;;
12990;SDS011;6560;57.692;11.958;2024-01-11T04:13:52;16.03;;;7.87;;
12990;SDS011;6560;57.692;11.958;2024-01-11T04:16:18;12.93;;;7.40;;
12990;SDS011;6560;57.692;11.958;2024-01-11T04:18:43;11.77;;;7.07;;
12990;SDS011;6560;57.692;11.958;2024-01-11T04:21:19;11.20;;;7.07;;
12990;SDS011;6560;57.692;11.958;2024-01-11T04:23:48;12.27;;;6.77;;
12990;SDS011;6560;57.692;11.958;2024-01-11T04:26:13;11.57;;;7.20;;
12990;SDS011;6560;57.692;11.958;2024-01-11T04:28:39;12.27;;;7.17;;
12990;SDS011;6560;57.692;11.958;2024-01-11T04:31:04;12.80;;;8.20;;
12990;SDS011;6560;57.692;11.958;2024-01-11T04:33:29;12.27;;;7.47;;
12990;SDS011;6560;57.692;11.958;2024-01-11T04:35:55;11.70;;;7.60;;
12990;SDS011;6560;57.692;11.958;2024-01-11T04:38:20;11.80;;;7.27;;
12990;SDS011;6560;57.692;11.958;2024-01-11T04:40:46;9.90;;;6.37;;
12990;SDS011;6560;57.692;11.958;2024-01-11T04:43:11;10.07;;;7.53;;
12990;SDS011;6560;57.692;11.958;2024-01-11T04:45:36;10.93;;;7.37;;
12990;SDS011;6560;57.692;11.958;2024-01-11T04:48:02;12.63;;;7.67;;
12990;SDS011;6560;57.692;11.958;2024-01-11T04:50:28;10.27;;;7.30;;
12990;SDS011;6560;57.692;11.958;2024-01-11T04:52:53;17.13;;;9.03;;
12990;SDS011;6560;57.692;11.958;2024-01-11T04:55:18;12.07;;;8.00;;
12990;SDS011;6560;57.692;11.958;2024-01-11T04:57:44;22.90;;;15.47;;
12990;SDS011;6560;57.692;11.958;2024-01-11T05:00:09;11.57;;;8.00;;
12990;SDS011;6560;57.692;11.958;2024-01-11T05:02:35;12.07;;;7.20;;
12990;SDS011;6560;57.692;11.958;2024-01-11T05:05:01;11.83;;;6.37;;
12990;SDS011;6560;57.692;11.958;2024-01-11T05:07:32;15.63;;;10.07;;
12990;SDS011;6560;57.692;11.958;2024-01-11T05:09:59;11.77;;;7.53;;
12990;SDS011;6560;57.692;11.958;2024-01-11T05:12:25;10.23;;;6.27;;
12990;SDS011;6560;57.692;11.958;2024-01-11T05:14:50;11.73;;;6.70;;
12990;SDS011;6560;57.692;11.958;2024-01-11T05:17:15;10.73;;;6.17;;
12990;SDS011;6560;57.692;11.958;2024-01-11T05:19:41;12.17;;;7.30;;
12990;SDS011;6560;57.692;11.958;2024-01-11T05:22:06;13.50;;;8.80;;
12990;SDS011;6560;57.692;11.958;2024-01-11T05:24:32;11.50;;;8.30;;
12990;SDS011;6560;57.692;11.958;2024-01-11T05:26:58;13.60;;;8.43;;
12990;SDS011;6560;57.692;11.958;2024-01-11T05:29:24;10.87;;;8.30;;
12990;SDS011;6560;57.692;11.958;2024-01-11T05:31:49;12.90;;;7.63;;
12990;SDS011;6560;57.692;11.958;2024-01-11T05:34:15;10.67;;;6.43;;
12990;SDS011;6560;57.692;11.958;2024-01-11T05:36:40;10.27;;;6.73;;
12990;SDS011;6560;57.692;11.958;2024-01-11T05:39:06;11.23;;;6.67;;
12990;SDS011;6560;57.692;11.958;2024-01-11T05:41:37;13.60;;;8.33;;
12990;SDS011;6560;57.692;11.958;2024-01-11T05:44:03;11.50;;;7.47;;
12990;SDS011;6560;57.692;11.958;2024-01-11T05:46:29;9.23;;;6.20;;
12990;SDS011;6560;57.692;11.958;2024-01-11T05:48:55;13.10;;;8.30;;
12990;SDS011;6560;57.692;11.958;2024-01-11T05:51:20;12.37;;;6.80;;
12990;SDS011;6560;57.692;11.958;2024-01-11T05:53:45;10.37;;;7.17;;
12990;SDS011;6560;57.692;11.958;2024-01-11T05:56:11;13.57;;;8.10;;
12990;SDS011;6560;57.692;11.958;2024-01-11T05:58:36;17.63;;;10.23;;
12990;SDS011;6560;57.692;11.958;2024-01-11T06:01:03;16.30;;;9.43;;
12990;SDS011;6560;57.692;11.958;2024-01-11T06:03:29;16.67;;;9.90;;
12990;SDS011;6560;57.692;11.958;2024-01-11T06:05:55;22.17;;;10.40;;
12990;SDS011;6560;57.692;11.958;2024-01-11T06:08:20;18.97;;;9.53;;
12990;SDS011;6560;57.692;11.958;2024-01-11T06:10:46;19.87;;;10.07;;
12990;SDS011;6560;57.692;11.958;2024-01-11T06:13:11;27.20;;;12.37;;
12990;SDS011;6560;57.692;11.958;2024-01-11T06:15:37;25.43;;;12.97;;
12990;SDS011;6560;57.692;11.958;2024-01-11T06:18:02;25.37;;;12.67;;
12990;SDS011;6560;57.692;11.958;2024-01-11T06:20:28;17.07;;;10.17;;
12990;SDS011;6560;57.692;11.958;2024-01-11T06:22:53;20.83;;;11.20;;
12990;SDS011;6560;57.692;11.958;2024-01-11T06:25:18;22.07;;;12.83;;
12990;SDS011;6560;57.692;11.958;2024-01-11T06:27:44;21.60;;;11.80;;
12990;SDS011;6560;57.692;11.958;2024-01-11T06:30:10;17.87;;;12.33;;
12990;SDS011;6560;57.692;11.958;2024-01-11T06:32:35;24.63;;;13.10;;
12990;SDS011;6560;57.692;11.958;2024-01-11T06:35:01;23.27;;;12.93;;
12990;SDS011;6560;57.692;11.958;2024-01-11T06:37:27;22.70;;;14.27;;
12990;SDS011;6560;57.692;11.958;2024-01-11T06:39:53;23.57;;;13.50;;
12990;SDS011;6560;57.692;11.958;2024-01-11T06:42:18;25.90;;;13.90;;
12990;SDS011;6560;57.692;11.958;2024-01-11T06:44:44;25.10;;;13.57;;
12990;SDS011;6560;57.692;11.958;2024-01-11T06:47:09;21.57;;;12.53;;
12990;SDS011;6560;57.692;11.958;2024-01-11T06:49:37;18.47;;;12.17;;
12990;SDS011;6560;57.692;11.958;2024-01-11T06:52:03;21.10;;;12.43;;
12990;SDS011;6560;57.692;11.958;2024-01-11T06:54:29;22.93;;;12.33;;
12990;SDS011;6560;57.692;11.958;2024-01-11T06:56:56;18.50;;;11.73;;
12990;SDS011;6560;57.692;11.958;2024-01-11T06:59:21;19.10;;;11.50;;
12990;SDS011;6560;57.692;11.958;2024-01-11T07:01:47;19.73;;;12.23;;
12990;SDS011;6560;57.692;11.958;2024-01-11T07:04:12;18.53;;;11.33;;
12990;SDS011;6560;57.692;11.958;2024-01-11T07:06:38;20.47;;;13.20;;
12990;SDS011;6560;57.692;11.958;2024-01-11T07:09:03;19.80;;;12.27;;
12990;SDS011;6560;57.692;11.958;2024-01-11T07:11:30;20.30;;;13.30;;
12990;SDS011;6560;57.692;11.958;2024-01-11T07:13:57;18.73;;;11.77;;
12990;SDS011;6560;57.692;11.958;2024-01-11T07:16:23;21.40;;;12.53;;
12990;SDS011;6560;57.692;11.958;2024-01-11T07:18:48;21.23;;;12.77;;
12990;SDS011;6560;57.692;11.958;2024-01-11T07:21:19;19.10;;;11.97;;
12990;SDS011;6560;57.692;11.958;2024-01-11T07:23:48;18.87;;;12.50;;
12990;SDS011;6560;57.692;11.958;2024-01-11T07:26:13;18.87;;;12.87;;
12990;SDS011;6560;57.692;11.958;2024-01-11T07:28:38;18.37;;;11.33;;
12990;SDS011;6560;57.692;11.958;2024-01-11T07:31:06;16.50;;;10.63;;
12990;SDS011;6560;57.692;11.958;2024-01-11T07:33:31;17.47;;;11.33;;
12990;SDS011;6560;57.692;11.958;2024-01-11T07:35:56;29.93;;;13.30;;
12990;SDS011;6560;57.692;11.958;2024-01-11T07:38:22;21.50;;;12.77;;
12990;SDS011;6560;57.692;11.958;2024-01-11T07:40:47;18.93;;;11.60;;
12990;SDS011;6560;57.692;11.958;2024-01-11T07:43:13;17.07;;;9.83;;
12990;SDS011;6560;57.692;11.958;2024-01-11T07:45:39;20.13;;;10.83;;
12990;SDS011;6560;57.692;11.958;2024-01-11T07:48:04;17.83;;;9.07;;
12990;SDS011;6560;57.692;11.958;2024-01-11T07:50:30;16.33;;;11.33;;
12990;SDS011;6560;57.692;11.958;2024-01-11T07:52:55;19.90;;;11.07;;
12990;SDS011;6560;57.692;11.958;2024-01-11T07:55:21;42.00;;;13.10;;
12990;SDS011;6560;57.692;11.958;2024-01-11T07:57:48;15.60;;;9.63;;
12990;SDS011;6560;57.692;11.958;2024-01-11T08:00:15;18.10;;;11.30;;
12990;SDS011;6560;57.692;11.958;2024-01-11T08:02:41;15.87;;;10.47;;
12990;SDS011;6560;57.692;11.958;2024-01-11T08:05:06;23.57;;;11.73;;
12990;SDS011;6560;57.692;11.958;2024-01-11T08:07:32;17.37;;;11.27;;
12990;SDS011;6560;57.692;11.958;2024-01-11T08:09:57;19.80;;;11.37;;
12990;SDS011;6560;57.692;11.958;2024-01-11T08:12:23;22.83;;;12.53;;
12990;SDS011;6560;57.692;11.958;2024-01-11T08:14:48;18.73;;;11.73;;
12990;SDS011;6560;57.692;11.958;2024-01-11T08:17:14;20.87;;;11.27;;
12990;SDS011;6560;57.692;11.958;2024-01-11T08:19:40;17.40;;;10.93;;
12990;SDS011;6560;57.692;11.958;2024-01-11T08:22:07;18.30;;;10.43;;
12990;SDS011;6560;57.692;11.958;2024-01-11T08:24:34;20.57;;;11.70;;
12990;SDS011;6560;57.692;11.958;2024-01-11T08:27:00;25.07;;;12.17;;
12990;SDS011;6560;57.692;11.958;2024-01-11T08:29:26;18.40;;;9.77;;
12990;SDS011;6560;57.692;11.958;2024-01-11T08:31:52;18.97;;;10.73;;
12990;SDS011;6560;57.692;11.958;2024-01-11T08:34:19;18.40;;;10.90;;
12990;SDS011;6560;57.692;11.958;2024-01-11T08:36:45;22.50;;;10.73;;
12990;SDS011;6560;57.692;11.958;2024-01-11T08:39:11;13.80;;;9.03;;
12990;SDS011;6560;57.692;11.958;2024-01-11T08:41:38;19.30;;;10.63;;
12990;SDS011;6560;57.692;11.958;2024-01-11T08:44:03;15.53;;;10.03;;
12990;SDS011;6560;57.692;11.958;2024-01-11T08:46:32;17.23;;;10.57;;
12990;SDS011;6560;57.692;11.958;2024-01-11T08:48:58;20.07;;;11.37;;
12990;SDS011;6560;57.692;11.958;2024-01-11T08:51:24;22.47;;;11.43;;
12990;SDS011;6560;57.692;11.958;2024-01-11T08:53:50;24.33;;;11.90;;
12990;SDS011;6560;57.692;11.958;2024-01-11T08:56:16;19.33;;;10.03;;
12990;SDS011;6560;57.692;11.958;2024-01-11T08:58:42;17.90;;;9.87;;
12990;SDS011;6560;57.692;11.958;2024-01-11T09:01:08;19.97;;;10.50;;
12990;SDS011;6560;57.692;11.958;2024-01-11T09:03:34;15.87;;;10.03;;
12990;SDS011;6560;57.692;11.958;2024-01-11T09:06:06;16.37;;;9.80;;
12990;SDS011;6560;57.692;11.958;2024-01-11T09:08:32;16.60;;;8.80;;
12990;SDS011;6560;57.692;11.958;2024-01-11T09:10:58;14.83;;;9.60;;
12990;SDS011;6560;57.692;11.958;2024-01-11T09:13:24;18.50;;;9.97;;
12990;SDS011;6560;57.692;11.958;2024-01-11T09:15:53;15.03;;;9.00;;
12990;SDS011;6560;57.692;11.958;2024-01-11T09:18:19;18.27;;;10.17;;
12990;SDS011;6560;57.692;11.958;2024-01-11T09:20:45;12.47;;;8.40;;
12990;SDS011;6560;57.692;11.958;2024-01-11T09:23:11;12.17;;;8.50;;
12990;SDS011;6560;57.692;11.958;2024-01-11T09:25:37;14.30;;;9.00;;
12990;SDS011;6560;57.692;11.958;2024-01-11T09:28:11;16.40;;;8.80;;
12990;SDS011;6560;57.692;11.958;2024-01-11T09:30:36;15.23;;;9.23;;
12990;SDS011;6560;57.692;11.958;2024-01-11T09:33:02;12.93;;;8.47;;
12990;SDS011;6560;57.692;11.958;2024-01-11T09:35:27;12.43;;;8.70;;
12990;SDS011;6560;57.692;11.958;2024-01-11T09:37:53;10.33;;;7.50;;
12990;SDS011;6560;57.692;11.958;2024-01-11T09:40:18;13.20;;;9.60;;
12990;SDS011;6560;57.692;11.958;2024-01-11T09:42:44;15.07;;;10.40;;
12990;SDS011;6560;57.692;11.958;2024-01-11T09:45:12;12.13;;;8.10;;
12990;SDS011;6560;57.692;11.958;2024-01-11T09:47:39;12.10;;;7.93;;
12990;SDS011;6560;57.692;11.958;2024-01-11T09:50:05;15.20;;;8.33;;
12990;SDS011;6560;57.692;11.958;2024-01-11T09:52:32;15.37;;;8.53;;
12990;SDS011;6560;57.692;11.958;2024-01-11T09:54:58;12.40;;;8.50;;
12990;SDS011;6560;57.692;11.958;2024-01-11T09:57:24;10.93;;;7.70;;
12990;SDS011;6560;57.692;11.958;2024-01-11T09:59:54;14.10;;;8.83;;
12990;SDS011;6560;57.692;11.958;2024-01-11T10:02:21;13.23;;;8.47;;
12990;SDS011;6560;57.692;11.958;2024-01-11T10:04:48;15.50;;;9.37;;
12990;SDS011;6560;57.692;11.958;2024-01-11T10:07:14;15.13;;;8.97;;
12990;SDS011;6560;57.692;11.958;2024-01-11T10:09:43;16.43;;;9.30;;
12990;SDS011;6560;57.692;11.958;2024-01-11T10:12:09;15.50;;;8.73;;
12990;SDS011;6560;57.692;11.958;2024-01-11T10:14:35;13.30;;;8.97;;
12990;SDS011;6560;57.692;11.958;2024-01-11T10:17:00;22.13;;;9.77;;
12990;SDS011;6560;57.692;11.958;2024-01-11T10:19:26;12.33;;;9.27;;
12990;SDS011;6560;57.692;11.958;2024-01-11T10:21:52;15.40;;;8.97;;
12990;SDS011;6560;57.692;11.958;2024-01-11T10:24:18;19.27;;;9.27;;
12990;SDS011;6560;57.692;11.958;2024-01-11T10:26:45;13.07;;;9.50;;
12990;SDS011;6560;57.692;11.958;2024-01-11T10:29:11;17.03;;;10.10;;
12990;SDS011;6560;57.692;11.958;2024-01-11T10:31:38;15.00;;;9.47;;
12990;SDS011;6560;57.692;11.958;2024-01-11T10:34:03;12.80;;;9.37;;
12990;SDS011;6560;57.692;11.958;2024-01-11T10:36:32;15.47;;;9.90;;
12990;SDS011;6560;57.692;11.958;2024-01-11T10:38:59;18.00;;;8.67;;
12990;SDS011;6560;57.692;11.958;2024-01-11T10:41:32;13.10;;;8.27;;
12990;SDS011;6560;57.692;11.958;2024-01-11T10:44:04;13.47;;;7.80;;
12990;SDS011;6560;57.692;11.958;2024-01-11T10:46:34;11.43;;;7.67;;
12990;SDS011;6560;57.692;11.958;2024-01-11T10:49:00;15.60;;;8.77;;
12990;SDS011;6560;57.692;11.958;2024-01-11T10:51:35;13.77;;;9.00;;
12990;SDS011;6560;57.692;11.958;2024-01-11T10:54:01;13.57;;;8.97;;
12990;SDS011;6560;57.692;11.958;2024-01-11T10:56:33;13.37;;;7.93;;
12990;SDS011;6560;57.692;11.958;2024-01-11T10:58:59;13.87;;;8.40;;
12990;SDS011;6560;57.692;11.958;2024-01-11T11:01:27;11.10;;;8.17;;
12990;SDS011;6560;57.692;11.958;2024-01-11T11:03:53;13.87;;;8.17;;
12990;SDS011;6560;57.692;11.958;2024-01-11T11:06:20;13.83;;;7.70;;
12990;SDS011;6560;57.692;11.958;2024-01-11T11:08:48;10.87;;;8.43;;
12990;SDS011;6560;57.692;11.958;2024-01-11T11:11:15;16.53;;;8.53;;
12990;SDS011;6560;57.692;11.958;2024-01-11T11:13:43;12.90;;;8.87;;
12990;SDS011;6560;57.692;11.958;2024-01-11T11:16:13;12.33;;;7.53;;
12990;SDS011;6560;57.692;11.958;2024-01-11T11:18:40;9.93;;;7.40;;
12990;SDS011;6560;57.692;11.958;2024-01-11T11:21:11;17.47;;;7.73;;
12990;SDS011;6560;57.692;11.958;2024-01-11T11:23:37;11.57;;;8.00;;
12990;SDS011;6560;57.692;11.958;2024-01-11T11:26:05;12.47;;;7.13;;
12990;SDS011;6560;57.692;11.958;2024-01-11T11:28:33;11.57;;;7.57;;
12990;SDS011;6560;57.692;11.958;2024-01-11T11:30:59;12.00;;;8.27;;
12990;SDS011;6560;57.692;11.958;2024-01-11T11:33:27;11.00;;;7.73;;
12990;SDS011;6560;57.692;11.958;2024-01-11T11:35:54;11.30;;;7.33;;
12990;SDS011;6560;57.692;11.958;2024-01-11T11:38:26;13.77;;;8.60;;
12990;SDS011;6560;57.692;11.958;2024-01-11T11:40:59;10.93;;;7.93;;
12990;SDS011;6560;57.692;11.958;2024-01-11T11:43:26;9.93;;;7.53;;
12990;SDS011;6560;57.692;11.958;2024-01-11T11:45:53;10.67;;;6.87;;
12990;SDS011;6560;57.692;11.958;2024-01-11T11:51:09;9.00;;;7.10;;
12990;SDS011;6560;57.692;11.958;2024-01-11T11:53:40;12.10;;;8.37;;
12990;SDS011;6560;57.692;11.958;2024-01-11T11:56:07;8.03;;;6.70;;
12990;SDS011;6560;57.692;11.958;2024-01-11T11:58:37;13.07;;;7.57;;
12990;SDS011;6560;57.692;11.958;2024-01-11T12:01:04;8.60;;;6.33;;
12990;SDS011;6560;57.692;11.958;2024-01-11T12:03:30;8.67;;;6.73;;
12990;SDS011;6560;57.692;11.958;2024-01-11T12:06:02;9.17;;;6.23;;
12990;SDS011;6560;57.692;11.958;2024-01-11T12:08:29;9.77;;;7.03;;
12990;SDS011;6560;57.692;11.958;2024-01-11T12:10:55;8.00;;;6.30;;
12990;SDS011;6560;57.692;11.958;2024-01-11T12:13:21;13.43;;;7.63;;
12990;SDS011;6560;57.692;11.958;2024-01-11T12:15:47;9.87;;;6.20;;
12990;SDS011;6560;57.692;11.958;2024-01-11T12:18:12;8.37;;;5.97;;
12990;SDS011;6560;57.692;11.958;2024-01-11T12:20:38;10.90;;;6.23;;
12990;SDS011;6560;57.692;11.958;2024-01-11T12:23:03;7.63;;;5.77;;
12990;SDS011;6560;57.692;11.958;2024-01-11T12:25:30;7.73;;;5.67;;
12990;SDS011;6560;57.692;11.958;2024-01-11T12:27:56;7.77;;;5.90;;
12990;SDS011;6560;57.692;11.958;2024-01-11T12:30:23;7.37;;;5.87;;
12990;SDS011;6560;57.692;11.958;2024-01-11T12:32:52;8.77;;;5.23;;
12990;SDS011;6560;57.692;11.958;2024-01-11T12:35:19;6.43;;;5.47;;
12990;SDS011;6560;57.692;11.958;2024-01-11T12:37:52;8.83;;;5.53;;
12990;SDS011;6560;57.692;11.958;2024-01-11T12:40:18;6.87;;;5.77;;
12990;SDS011;6560;57.692;11.958;2024-01-11T12:42:44;8.10;;;6.00;;
12990;SDS011;6560;57.692;11.958;2024-01-11T12:45:10;7.53;;;5.57;;
12990;SDS011;6560;57.692;11.958;2024-01-11T12:47:35;10.20;;;4.87;;
12990;SDS011;6560;57.692;11.958;2024-01-11T12:50:02;7.63;;;5.77;;
12990;SDS011;6560;57.692;11.958;2024-01-11T12:52:28;6.60;;;4.67;;
12990;SDS011;6560;57.692;11.958;2024-01-11T12:54:55;7.33;;;4.80;;
12990;SDS011;6560;57.692;11.958;2024-01-11T12:57:21;6.67;;;4.87;;
12990;SDS011;6560;57.692;11.958;2024-01-11T12:59:48;5.50;;;4.87;;
12990;SDS011;6560;57.692;11.958;2024-01-11T13:02:14;8.60;;;4.40;;
12990;SDS011;6560;57.692;11.958;2024-01-11T13:04:42;6.73;;;5.33;;
12990;SDS011;6560;57.692;11.958;2024-01-11T13:07:10;6.83;;;4.47;;
12990;SDS011;6560;57.692;11.958;2024-01-11T13:09:37;7.70;;;4.47;;
12990;SDS011;6560;57.692;11.958;2024-01-11T13:12:03;8.20;;;4.77;;
12990;SDS011;6560;57.692;11.958;2024-01-11T13:14:28;5.43;;;4.13;;
12990;SDS011;6560;57.692;11.958;2024-01-11T13:16:54;7.83;;;4.73;;
12990;SDS011;6560;57.692;11.958;2024-01-11T13:19:20;8.83;;;4.60;;
12990;SDS011;6560;57.692;11.958;2024-01-11T13:21:45;7.40;;;4.50;;
12990;SDS011;6560;57.692;11.958;2024-01-11T13:24:10;7.07;;;4.93;;
12990;SDS011;6560;57.692;11.958;2024-01-11T13:26:38;5.03;;;4.27;;
12990;SDS011;6560;57.692;11.958;2024-01-11T13:29:04;7.63;;;4.90;;
12990;SDS011;6560;57.692;11.958;2024-01-11T13:31:30;7.90;;;4.93;;
12990;SDS011;6560;57.692;11.958;2024-01-11T13:33:57;7.07;;;4.37;;
12990;SDS011;6560;57.692;11.958;2024-01-11T13:36:23;7.97;;;4.80;;
12990;SDS011;6560;57.692;11.958;2024-01-11T13:38:48;7.47;;;4.83;;
12990;SDS011;6560;57.692;11.958;2024-01-11T13:41:15;5.93;;;4.43;;
12990;SDS011;6560;57.692;11.958;2024-01-11T13:43:42;5.17;;;3.80;;
12990;SDS011;6560;57.692;11.958;2024-01-11T13:46:08;4.93;;;4.13;;
12990;SDS011;6560;57.692;11.958;2024-01-11T13:48:34;5.30;;;4.30;;
12990;SDS011;6560;57.692;11.958;2024-01-11T13:51:03;6.13;;;3.97;;
12990;SDS011;6560;57.692;11.958;2024-01-11T13:53:29;6.93;;;3.80;;
12990;SDS011;6560;57.692;11.958;2024-01-11T13:55:54;4.23;;;3.83;;
12990;SDS011;6560;57.692;11.958;2024-01-11T13:58:20;6.50;;;3.33;;
12990;SDS011;6560;57.692;11.958;2024-01-11T14:00:46;5.47;;;3.73;;
12990;SDS011;6560;57.692;11.958;2024-01-11T14:03:12;4.47;;;3.00;;
12990;SDS011;6560;57.692;11.958;2024-01-11T14:05:46;5.50;;;3.50;;
12990;SDS011;6560;57.692;11.958;2024-01-11T14:08:12;5.67;;;3.27;;
12990;SDS011;6560;57.692;11.958;2024-01-11T14:10:38;4.70;;;3.70;;
12990;SDS011;6560;57.692;11.958;2024-01-11T14:13:03;5.17;;;3.23;;
12990;SDS011;6560;57.692;11.958;2024-01-11T14:15:29;4.00;;;3.20;;
12990;SDS011;6560;57.692;11.958;2024-01-11T14:17:54;3.77;;;3.33;;
12990;SDS011;6560;57.692;11.958;2024-01-11T14:20:20;4.33;;;3.27;;
12990;SDS011;6560;57.692;11.958;2024-01-11T14:22:46;4.50;;;3.30;;
12990;SDS011;6560;57.692;11.958;2024-01-11T14:25:14;3.70;;;2.70;;
12990;SDS011;6560;57.692;11.958;2024-01-11T14:27:40;4.27;;;3.13;;
12990;SDS011;6560;57.692;11.958;2024-01-11T14:30:06;3.10;;;2.77;;
12990;SDS011;6560;57.692;11.958;2024-01-11T14:32:32;4.57;;;3.00;;